sensor_id;sensor_type;location;lat;lon;timestamp;temperature;humidity
84335;DHT22;74512;51.190;3.198;2024-02-21T00:02:04;11.00;1.00
84335;DHT22;74512;51.190;3.198;2024-02-21T00:04:29;10.70;1.00
84335;DHT22;74512;51.190;3.198;2024-02-21T00:06:55;10.80;1.00
84335;DHT22;74512;51.190;3.198;2024-02-21T00:09:21;10.90;1.00
84335;DHT22;74512;51.190;3.198;2024-02-21T00:11:46;10.90;1.00
84335;DHT22;74512;51.190;3.198;2024-02-21T00:14:13;10.90;1.00
84335;DHT22;74512;51.190;3.198;2024-02-21T00:16:38;11.00;1.00
84335;DHT22;74512;51.190;3.198;2024-02-21T00:19:04;10.90;1.00
84335;DHT22;74512;51.190;3.198;2024-02-21T00:21:30;11.00;1.00
84335;DHT22;74512;51.190;3.198;2024-02-21T00:23:55;10.90;1.00
84335;DHT22;74512;51.190;3.198;2024-02-21T00:26:22;10.90;1.00
84335;DHT22;74512;51.190;3.198;2024-02-21T00:28:47;11.00;1.00
84335;DHT22;74512;51.190;3.198;2024-02-21T00:31:13;11.00;1.00
84335;DHT22;74512;51.190;3.198;2024-02-21T00:33:38;10.80;1.00
84335;DHT22;74512;51.190;3.198;2024-02-21T00:36:04;11.00;1.00
84335;DHT22;74512;51.190;3.198;2024-02-21T00:38:30;10.80;1.00
84335;DHT22;74512;51.190;3.198;2024-02-21T00:40:55;10.80;1.00
84335;DHT22;74512;51.190;3.198;2024-02-21T00:43:21;10.90;1.00
84335;DHT22;74512;51.190;3.198;2024-02-21T00:45:49;11.00;1.00
84335;DHT22;74512;51.190;3.198;2024-02-21T00:48:15;11.10;1.00
84335;DHT22;74512;51.190;3.198;2024-02-21T00:50:41;11.00;1.00
84335;DHT22;74512;51.190;3.198;2024-02-21T00:53:06;10.80;1.00
84335;DHT22;74512;51.190;3.198;2024-02-21T00:55:32;10.90;1.00
84335;DHT22;74512;51.190;3.198;2024-02-21T00:57:58;10.90;1.00
84335;DHT22;74512;51.190;3.198;2024-02-21T01:00:23;10.80;1.00
84335;DHT22;74512;51.190;3.198;2024-02-21T01:02:49;10.70;1.00
84335;DHT22;74512;51.190;3.198;2024-02-21T01:05:15;10.60;1.00
84335;DHT22;74512;51.190;3.198;2024-02-21T01:07:40;10.40;1.00
84335;DHT22;74512;51.190;3.198;2024-02-21T01:10:06;10.40;1.00
84335;DHT22;74512;51.190;3.198;2024-02-21T01:12:32;10.30;1.00
84335;DHT22;74512;51.190;3.198;2024-02-21T01:14:58;10.40;1.00
84335;DHT22;74512;51.190;3.198;2024-02-21T01:17:23;10.50;1.00
84335;DHT22;74512;51.190;3.198;2024-02-21T01:19:49;10.60;1.00
84335;DHT22;74512;51.190;3.198;2024-02-21T01:22:15;10.50;1.00
84335;DHT22;74512;51.190;3.198;2024-02-21T01:24:41;10.50;1.00
84335;DHT22;74512;51.190;3.198;2024-02-21T01:27:07;10.80;1.00
84335;DHT22;74512;51.190;3.198;2024-02-21T01:29:32;10.80;1.00
84335;DHT22;74512;51.190;3.198;2024-02-21T01:31:58;10.80;1.00
84335;DHT22;74512;51.190;3.198;2024-02-21T01:34:24;10.70;1.00
84335;DHT22;74512;51.190;3.198;2024-02-21T01:36:49;10.80;1.00
84335;DHT22;74512;51.190;3.198;2024-02-21T01:39:15;10.80;1.00
84335;DHT22;74512;51.190;3.198;2024-02-21T01:41:41;10.70;1.00
84335;DHT22;74512;51.190;3.198;2024-02-21T01:44:07;10.80;1.00
84335;DHT22;74512;51.190;3.198;2024-02-21T01:46:33;10.80;1.00
84335;DHT22;74512;51.190;3.198;2024-02-21T01:48:59;10.80;1.00
84335;DHT22;74512;51.190;3.198;2024-02-21T01:51:25;10.70;1.00
84335;DHT22;74512;51.190;3.198;2024-02-21T01:53:52;10.70;1.00
84335;DHT22;74512;51.190;3.198;2024-02-21T01:56:18;10.50;1.00
84335;DHT22;74512;51.190;3.198;2024-02-21T01:58:46;10.60;1.00
84335;DHT22;74512;51.190;3.198;2024-02-21T02:01:12;10.50;1.00
84335;DHT22;74512;51.190;3.198;2024-02-21T02:03:38;10.60;1.00
84335;DHT22;74512;51.190;3.198;2024-02-21T02:06:05;10.60;1.00
84335;DHT22;74512;51.190;3.198;2024-02-21T02:08:34;10.50;1.00
84335;DHT22;74512;51.190;3.198;2024-02-21T02:11:00;10.60;1.00
84335;DHT22;74512;51.190;3.198;2024-02-21T02:13:26;10.70;1.00
84335;DHT22;74512;51.190;3.198;2024-02-21T02:15:52;10.70;1.00
84335;DHT22;74512;51.190;3.198;2024-02-21T02:18:19;10.60;1.00
84335;DHT22;74512;51.190;3.198;2024-02-21T02:20:45;10.50;1.00
84335;DHT22;74512;51.190;3.198;2024-02-21T02:25:50;10.70;1.00
84335;DHT22;74512;51.190;3.198;2024-02-21T02:28:20;10.80;1.00
84335;DHT22;74512;51.190;3.198;2024-02-21T02:30:46;10.90;1.00
84335;DHT22;74512;51.190;3.198;2024-02-21T02:33:12;10.60;1.00
84335;DHT22;74512;51.190;3.198;2024-02-21T02:35:38;10.70;1.00
84335;DHT22;74512;51.190;3.198;2024-02-21T02:38:04;10.50;1.00
84335;DHT22;74512;51.190;3.198;2024-02-21T02:40:33;10.60;1.00
84335;DHT22;74512;51.190;3.198;2024-02-21T02:43:00;10.60;1.00
84335;DHT22;74512;51.190;3.198;2024-02-21T02:45:26;10.80;1.00
84335;DHT22;74512;51.190;3.198;2024-02-21T02:47:52;10.60;1.00
84335;DHT22;74512;51.190;3.198;2024-02-21T02:50:20;10.80;1.00
84335;DHT22;74512;51.190;3.198;2024-02-21T02:52:46;10.70;1.00
84335;DHT22;74512;51.190;3.198;2024-02-21T02:55:11;10.60;1.00
84335;DHT22;74512;51.190;3.198;2024-02-21T02:57:37;10.60;1.00
84335;DHT22;74512;51.190;3.198;2024-02-21T03:00:04;10.70;1.00
84335;DHT22;74512;51.190;3.198;2024-02-21T03:02:30;10.80;1.00
84335;DHT22;74512;51.190;3.198;2024-02-21T03:04:56;10.90;1.00
84335;DHT22;74512;51.190;3.198;2024-02-21T03:07:23;10.70;1.00
84335;DHT22;74512;51.190;3.198;2024-02-21T03:09:50;10.50;1.00
84335;DHT22;74512;51.190;3.198;2024-02-21T03:12:15;10.50;1.00
84335;DHT22;74512;51.190;3.198;2024-02-21T03:14:50;10.60;1.00
84335;DHT22;74512;51.190;3.198;2024-02-21T03:17:15;10.80;1.00
84335;DHT22;74512;51.190;3.198;2024-02-21T03:19:41;10.80;1.00
84335;DHT22;74512;51.190;3.198;2024-02-21T03:22:06;10.80;1.00
84335;DHT22;74512;51.190;3.198;2024-02-21T03:24:33;10.90;1.00
84335;DHT22;74512;51.190;3.198;2024-02-21T03:26:59;10.90;1.00
84335;DHT22;74512;51.190;3.198;2024-02-21T03:29:25;10.80;1.00
84335;DHT22;74512;51.190;3.198;2024-02-21T03:31:51;10.80;1.00
84335;DHT22;74512;51.190;3.198;2024-02-21T03:34:16;10.70;1.00
84335;DHT22;74512;51.190;3.198;2024-02-21T03:36:42;10.80;1.00
84335;DHT22;74512;51.190;3.198;2024-02-21T03:39:08;10.90;1.00
84335;DHT22;74512;51.190;3.198;2024-02-21T03:41:34;10.80;1.00
84335;DHT22;74512;51.190;3.198;2024-02-21T03:44:00;10.80;1.00
84335;DHT22;74512;51.190;3.198;2024-02-21T03:46:26;10.70;1.00
84335;DHT22;74512;51.190;3.198;2024-02-21T03:48:52;10.60;1.00
84335;DHT22;74512;51.190;3.198;2024-02-21T03:51:18;10.80;1.00
84335;DHT22;74512;51.190;3.198;2024-02-21T03:53:43;10.60;1.00
84335;DHT22;74512;51.190;3.198;2024-02-21T03:56:09;10.50;1.00
84335;DHT22;74512;51.190;3.198;2024-02-21T03:58:35;10.60;1.00
84335;DHT22;74512;51.190;3.198;2024-02-21T04:01:01;10.60;1.00
84335;DHT22;74512;51.190;3.198;2024-02-21T04:03:30;10.50;1.00
84335;DHT22;74512;51.190;3.198;2024-02-21T04:05:56;10.60;1.00
84335;DHT22;74512;51.190;3.198;2024-02-21T04:08:22;10.60;1.00
84335;DHT22;74512;51.190;3.198;2024-02-21T04:10:48;10.70;1.00
84335;DHT22;74512;51.190;3.198;2024-02-21T04:13:14;11.00;1.00
84335;DHT22;74512;51.190;3.198;2024-02-21T04:15:39;11.00;1.00
84335;DHT22;74512;51.190;3.198;2024-02-21T04:18:05;11.00;1.00
84335;DHT22;74512;51.190;3.198;2024-02-21T04:20:31;11.00;1.00
84335;DHT22;74512;51.190;3.198;2024-02-21T04:22:57;10.90;1.00
84335;DHT22;74512;51.190;3.198;2024-02-21T04:25:23;10.70;1.00
84335;DHT22;74512;51.190;3.198;2024-02-21T04:27:49;10.50;1.00
84335;DHT22;74512;51.190;3.198;2024-02-21T04:30:14;10.60;1.00
84335;DHT22;74512;51.190;3.198;2024-02-21T04:32:41;10.70;1.00
84335;DHT22;74512;51.190;3.198;2024-02-21T04:35:07;10.70;1.00
84335;DHT22;74512;51.190;3.198;2024-02-21T04:37:33;10.70;1.00
84335;DHT22;74512;51.190;3.198;2024-02-21T04:39:59;10.70;1.00
84335;DHT22;74512;51.190;3.198;2024-02-21T04:42:24;10.70;1.00
84335;DHT22;74512;51.190;3.198;2024-02-21T04:44:50;10.70;1.00
84335;DHT22;74512;51.190;3.198;2024-02-21T04:47:16;10.80;1.00
84335;DHT22;74512;51.190;3.198;2024-02-21T04:49:41;11.00;1.00
84335;DHT22;74512;51.190;3.198;2024-02-21T04:52:07;11.10;1.00
84335;DHT22;74512;51.190;3.198;2024-02-21T04:54:33;11.20;1.00
84335;DHT22;74512;51.190;3.198;2024-02-21T04:57:00;11.10;1.00
84335;DHT22;74512;51.190;3.198;2024-02-21T04:59:26;10.90;1.00
84335;DHT22;74512;51.190;3.198;2024-02-21T05:01:52;10.90;1.00
84335;DHT22;74512;51.190;3.198;2024-02-21T05:04:17;11.00;1.00
84335;DHT22;74512;51.190;3.198;2024-02-21T05:06:43;10.90;1.00
84335;DHT22;74512;51.190;3.198;2024-02-21T05:09:10;10.60;1.00
84335;DHT22;74512;51.190;3.198;2024-02-21T05:11:36;10.60;1.00
84335;DHT22;74512;51.190;3.198;2024-02-21T05:14:02;10.80;1.00
84335;DHT22;74512;51.190;3.198;2024-02-21T05:16:28;10.60;1.00
84335;DHT22;74512;51.190;3.198;2024-02-21T05:18:53;10.70;1.00
84335;DHT22;74512;51.190;3.198;2024-02-21T05:21:19;10.70;1.00
84335;DHT22;74512;51.190;3.198;2024-02-21T05:23:45;10.90;1.00
84335;DHT22;74512;51.190;3.198;2024-02-21T05:26:11;10.90;1.00
84335;DHT22;74512;51.190;3.198;2024-02-21T05:28:36;10.70;1.00
84335;DHT22;74512;51.190;3.198;2024-02-21T05:31:02;10.90;1.00
84335;DHT22;74512;51.190;3.198;2024-02-21T05:33:28;10.80;1.00
84335;DHT22;74512;51.190;3.198;2024-02-21T05:35:53;10.80;1.00
84335;DHT22;74512;51.190;3.198;2024-02-21T05:38:19;10.80;1.00
84335;DHT22;74512;51.190;3.198;2024-02-21T05:40:45;10.90;1.00
84335;DHT22;74512;51.190;3.198;2024-02-21T05:43:11;11.00;1.00
84335;DHT22;74512;51.190;3.198;2024-02-21T05:45:37;10.90;1.00
84335;DHT22;74512;51.190;3.198;2024-02-21T05:48:03;11.00;1.00
84335;DHT22;74512;51.190;3.198;2024-02-21T05:50:29;10.90;1.00
84335;DHT22;74512;51.190;3.198;2024-02-21T05:52:55;11.00;1.00
84335;DHT22;74512;51.190;3.198;2024-02-21T05:55:22;10.80;1.00
84335;DHT22;74512;51.190;3.198;2024-02-21T05:57:48;10.80;1.00
84335;DHT22;74512;51.190;3.198;2024-02-21T06:00:14;10.80;1.00
84335;DHT22;74512;51.190;3.198;2024-02-21T06:02:40;10.90;1.00
84335;DHT22;74512;51.190;3.198;2024-02-21T06:05:07;10.80;1.00
84335;DHT22;74512;51.190;3.198;2024-02-21T06:07:33;10.80;1.00
84335;DHT22;74512;51.190;3.198;2024-02-21T06:10:01;10.50;1.00
84335;DHT22;74512;51.190;3.198;2024-02-21T06:12:27;10.50;1.00
84335;DHT22;74512;51.190;3.198;2024-02-21T06:14:52;10.70;1.00
84335;DHT22;74512;51.190;3.198;2024-02-21T06:17:18;10.60;1.00
84335;DHT22;74512;51.190;3.198;2024-02-21T06:19:44;10.70;1.00
84335;DHT22;74512;51.190;3.198;2024-02-21T06:22:10;10.60;1.00
84335;DHT22;74512;51.190;3.198;2024-02-21T06:24:36;10.50;1.00
84335;DHT22;74512;51.190;3.198;2024-02-21T06:27:05;10.60;1.00
84335;DHT22;74512;51.190;3.198;2024-02-21T06:29:34;10.60;1.00
84335;DHT22;74512;51.190;3.198;2024-02-21T06:32:00;10.80;1.00
84335;DHT22;74512;51.190;3.198;2024-02-21T06:34:26;10.80;1.00
84335;DHT22;74512;51.190;3.198;2024-02-21T06:36:52;10.80;1.00
84335;DHT22;74512;51.190;3.198;2024-02-21T06:39:17;10.60;1.00
84335;DHT22;74512;51.190;3.198;2024-02-21T06:41:43;10.70;1.00
84335;DHT22;74512;51.190;3.198;2024-02-21T06:44:09;10.80;1.00
84335;DHT22;74512;51.190;3.198;2024-02-21T06:46:35;10.80;1.00
84335;DHT22;74512;51.190;3.198;2024-02-21T06:49:01;10.70;1.00
84335;DHT22;74512;51.190;3.198;2024-02-21T06:51:29;10.80;1.00
84335;DHT22;74512;51.190;3.198;2024-02-21T06:53:55;10.80;1.00
84335;DHT22;74512;51.190;3.198;2024-02-21T06:56:23;11.10;1.00
84335;DHT22;74512;51.190;3.198;2024-02-21T06:58:52;11.10;1.00
84335;DHT22;74512;51.190;3.198;2024-02-21T07:01:18;11.20;1.00
84335;DHT22;74512;51.190;3.198;2024-02-21T07:03:43;11.20;1.00
84335;DHT22;74512;51.190;3.198;2024-02-21T07:06:09;11.20;1.00
84335;DHT22;74512;51.190;3.198;2024-02-21T07:08:35;11.00;1.00
84335;DHT22;74512;51.190;3.198;2024-02-21T07:11:00;11.10;1.00
84335;DHT22;74512;51.190;3.198;2024-02-21T07:13:26;10.90;1.00
84335;DHT22;74512;51.190;3.198;2024-02-21T07:15:51;10.90;1.00
84335;DHT22;74512;51.190;3.198;2024-02-21T07:18:17;11.10;1.00
84335;DHT22;74512;51.190;3.198;2024-02-21T07:20:43;11.10;1.00
84335;DHT22;74512;51.190;3.198;2024-02-21T07:23:09;11.30;1.00
84335;DHT22;74512;51.190;3.198;2024-02-21T07:25:34;11.30;1.00
84335;DHT22;74512;51.190;3.198;2024-02-21T07:28:00;11.20;1.00
84335;DHT22;74512;51.190;3.198;2024-02-21T07:30:26;11.20;1.00
84335;DHT22;74512;51.190;3.198;2024-02-21T07:32:51;11.20;1.00
84335;DHT22;74512;51.190;3.198;2024-02-21T07:35:18;11.20;1.00
84335;DHT22;74512;51.190;3.198;2024-02-21T07:37:43;11.30;1.00
84335;DHT22;74512;51.190;3.198;2024-02-21T07:40:13;11.20;1.00
84335;DHT22;74512;51.190;3.198;2024-02-21T07:42:39;11.40;1.00
84335;DHT22;74512;51.190;3.198;2024-02-21T07:45:07;11.40;1.00
84335;DHT22;74512;51.190;3.198;2024-02-21T07:47:32;11.20;1.00
84335;DHT22;74512;51.190;3.198;2024-02-21T07:49:58;11.10;1.00
84335;DHT22;74512;51.190;3.198;2024-02-21T07:52:23;11.30;1.00
84335;DHT22;74512;51.190;3.198;2024-02-21T07:54:50;11.50;1.00
84335;DHT22;74512;51.190;3.198;2024-02-21T07:57:16;11.20;1.00
84335;DHT22;74512;51.190;3.198;2024-02-21T07:59:41;10.90;1.00
84335;DHT22;74512;51.190;3.198;2024-02-21T08:02:07;11.10;1.00
84335;DHT22;74512;51.190;3.198;2024-02-21T08:04:33;11.10;1.00
84335;DHT22;74512;51.190;3.198;2024-02-21T08:06:59;11.00;1.00
84335;DHT22;74512;51.190;3.198;2024-02-21T08:09:28;11.30;1.00
84335;DHT22;74512;51.190;3.198;2024-02-21T08:11:54;11.30;1.00
84335;DHT22;74512;51.190;3.198;2024-02-21T08:14:21;11.20;1.00
84335;DHT22;74512;51.190;3.198;2024-02-21T08:16:47;11.10;1.00
84335;DHT22;74512;51.190;3.198;2024-02-21T08:19:13;11.40;1.00
84335;DHT22;74512;51.190;3.198;2024-02-21T08:21:39;11.20;1.00
84335;DHT22;74512;51.190;3.198;2024-02-21T08:24:05;11.00;1.00
84335;DHT22;74512;51.190;3.198;2024-02-21T08:26:31;10.80;1.00
84335;DHT22;74512;51.190;3.198;2024-02-21T08:29:00;11.20;1.00
84335;DHT22;74512;51.190;3.198;2024-02-21T08:31:26;11.10;1.00
84335;DHT22;74512;51.190;3.198;2024-02-21T08:34:00;11.30;1.00
84335;DHT22;74512;51.190;3.198;2024-02-21T08:36:31;11.20;1.00
84335;DHT22;74512;51.190;3.198;2024-02-21T08:38:58;11.30;1.00
84335;DHT22;74512;51.190;3.198;2024-02-21T08:41:24;11.30;1.00
84335;DHT22;74512;51.190;3.198;2024-02-21T08:43:53;11.40;1.00
84335;DHT22;74512;51.190;3.198;2024-02-21T08:46:22;11.10;1.00
84335;DHT22;74512;51.190;3.198;2024-02-21T08:48:50;11.00;1.00
84335;DHT22;74512;51.190;3.198;2024-02-21T08:51:17;11.10;1.00
84335;DHT22;74512;51.190;3.198;2024-02-21T08:53:44;11.30;1.00
84335;DHT22;74512;51.190;3.198;2024-02-21T08:56:10;11.50;1.00
84335;DHT22;74512;51.190;3.198;2024-02-21T08:58:36;11.40;1.00
84335;DHT22;74512;51.190;3.198;2024-02-21T09:01:03;11.20;1.00
84335;DHT22;74512;51.190;3.198;2024-02-21T09:03:35;11.40;1.00
84335;DHT22;74512;51.190;3.198;2024-02-21T09:06:01;11.40;1.00
84335;DHT22;74512;51.190;3.198;2024-02-21T09:08:27;11.50;1.00
84335;DHT22;74512;51.190;3.198;2024-02-21T09:10:53;11.60;1.00
84335;DHT22;74512;51.190;3.198;2024-02-21T09:13:19;11.40;1.00
84335;DHT22;74512;51.190;3.198;2024-02-21T09:15:44;11.80;1.00
84335;DHT22;74512;51.190;3.198;2024-02-21T09:18:10;11.70;1.00
84335;DHT22;74512;51.190;3.198;2024-02-21T09:20:36;11.70;1.00
84335;DHT22;74512;51.190;3.198;2024-02-21T09:23:01;11.60;1.00
84335;DHT22;74512;51.190;3.198;2024-02-21T09:25:27;11.70;1.00
84335;DHT22;74512;51.190;3.198;2024-02-21T09:27:54;11.70;1.00
84335;DHT22;74512;51.190;3.198;2024-02-21T09:30:20;11.50;1.00
84335;DHT22;74512;51.190;3.198;2024-02-21T09:32:46;11.40;1.00
84335;DHT22;74512;51.190;3.198;2024-02-21T09:35:12;11.60;1.00
84335;DHT22;74512;51.190;3.198;2024-02-21T09:37:39;11.40;1.00
84335;DHT22;74512;51.190;3.198;2024-02-21T09:40:05;11.50;1.00
84335;DHT22;74512;51.190;3.198;2024-02-21T09:42:40;11.60;1.00
84335;DHT22;74512;51.190;3.198;2024-02-21T09:45:26;11.70;1.00
84335;DHT22;74512;51.190;3.198;2024-02-21T09:50:36;11.40;1.00
84335;DHT22;74512;51.190;3.198;2024-02-21T09:53:04;11.50;1.00
84335;DHT22;74512;51.190;3.198;2024-02-21T09:55:33;11.50;1.00
84335;DHT22;74512;51.190;3.198;2024-02-21T09:58:01;11.70;1.00
84335;DHT22;74512;51.190;3.198;2024-02-21T10:00:27;11.80;1.00
84335;DHT22;74512;51.190;3.198;2024-02-21T10:02:54;11.50;1.00
84335;DHT22;74512;51.190;3.198;2024-02-21T10:05:19;11.60;1.00
84335;DHT22;74512;51.190;3.198;2024-02-21T10:07:45;11.60;1.00
84335;DHT22;74512;51.190;3.198;2024-02-21T10:10:12;11.50;1.00
84335;DHT22;74512;51.190;3.198;2024-02-21T10:12:51;11.60;1.00
84335;DHT22;74512;51.190;3.198;2024-02-21T10:15:21;11.80;1.00
84335;DHT22;74512;51.190;3.198;2024-02-21T10:17:53;11.80;1.00
84335;DHT22;74512;51.190;3.198;2024-02-21T10:20:23;11.70;1.00
84335;DHT22;74512;51.190;3.198;2024-02-21T10:23:00;11.80;1.00
84335;DHT22;74512;51.190;3.198;2024-02-21T10:25:27;11.60;1.00
84335;DHT22;74512;51.190;3.198;2024-02-21T10:27:54;11.50;1.00
84335;DHT22;74512;51.190;3.198;2024-02-21T10:30:23;11.70;1.00
84335;DHT22;74512;51.190;3.198;2024-02-21T10:32:50;11.90;1.00
84335;DHT22;74512;51.190;3.198;2024-02-21T10:35:26;11.60;1.00
84335;DHT22;74512;51.190;3.198;2024-02-21T10:37:53;11.70;1.00
84335;DHT22;74512;51.190;3.198;2024-02-21T10:40:26;11.70;1.00
84335;DHT22;74512;51.190;3.198;2024-02-21T10:42:59;11.90;1.00
84335;DHT22;74512;51.190;3.198;2024-02-21T10:45:36;11.80;1.00
84335;DHT22;74512;51.190;3.198;2024-02-21T10:48:12;11.70;1.00
84335;DHT22;74512;51.190;3.198;2024-02-21T10:53:35;11.30;1.00
84335;DHT22;74512;51.190;3.198;2024-02-21T10:56:31;11.40;1.00
84335;DHT22;74512;51.190;3.198;2024-02-21T10:59:02;11.50;1.00
84335;DHT22;74512;51.190;3.198;2024-02-21T11:01:31;11.80;1.00
84335;DHT22;74512;51.190;3.198;2024-02-21T11:04:02;11.80;1.00
84335;DHT22;74512;51.190;3.198;2024-02-21T11:06:29;11.90;1.00
84335;DHT22;74512;51.190;3.198;2024-02-21T11:09:08;11.60;1.00
84335;DHT22;74512;51.190;3.198;2024-02-21T11:11:43;11.70;1.00
84335;DHT22;74512;51.190;3.198;2024-02-21T11:16:39;11.70;1.00
84335;DHT22;74512;51.190;3.198;2024-02-21T11:19:20;11.80;1.00
84335;DHT22;74512;51.190;3.198;2024-02-21T11:21:50;11.70;1.00
84335;DHT22;74512;51.190;3.198;2024-02-21T11:24:32;11.40;1.00
84335;DHT22;74512;51.190;3.198;2024-02-21T11:27:19;11.60;1.00
84335;DHT22;74512;51.190;3.198;2024-02-21T11:29:49;11.60;1.00
84335;DHT22;74512;51.190;3.198;2024-02-21T11:32:20;11.70;1.00
84335;DHT22;74512;51.190;3.198;2024-02-21T11:35:00;11.80;1.00
84335;DHT22;74512;51.190;3.198;2024-02-21T11:37:33;11.40;1.00
84335;DHT22;74512;51.190;3.198;2024-02-21T11:39:59;11.60;1.00
84335;DHT22;74512;51.190;3.198;2024-02-21T11:42:26;11.60;1.00
84335;DHT22;74512;51.190;3.198;2024-02-21T11:44:53;11.50;1.00
84335;DHT22;74512;51.190;3.198;2024-02-21T11:47:19;11.60;1.00
84335;DHT22;74512;51.190;3.198;2024-02-21T11:49:45;11.70;1.00
84335;DHT22;74512;51.190;3.198;2024-02-21T11:52:12;11.60;1.00
84335;DHT22;74512;51.190;3.198;2024-02-21T11:54:41;11.40;1.00
84335;DHT22;74512;51.190;3.198;2024-02-21T11:57:06;11.70;1.00
84335;DHT22;74512;51.190;3.198;2024-02-21T11:59:33;11.80;1.00
84335;DHT22;74512;51.190;3.198;2024-02-21T12:02:03;11.80;1.00
84335;DHT22;74512;51.190;3.198;2024-02-21T12:04:29;11.90;1.00
84335;DHT22;74512;51.190;3.198;2024-02-21T12:06:57;11.70;1.00
84335;DHT22;74512;51.190;3.198;2024-02-21T12:09:23;11.60;1.00
84335;DHT22;74512;51.190;3.198;2024-02-21T12:11:59;11.60;1.00
84335;DHT22;74512;51.190;3.198;2024-02-21T12:14:26;11.60;1.00
84335;DHT22;74512;51.190;3.198;2024-02-21T12:16:51;11.70;1.00
84335;DHT22;74512;51.190;3.198;2024-02-21T12:19:17;11.60;1.00
84335;DHT22;74512;51.190;3.198;2024-02-21T12:21:43;11.80;1.00
84335;DHT22;74512;51.190;3.198;2024-02-21T12:24:22;11.70;1.00
84335;DHT22;74512;51.190;3.198;2024-02-21T12:26:49;11.60;1.00
84335;DHT22;74512;51.190;3.198;2024-02-21T12:29:15;11.30;1.00
84335;DHT22;74512;51.190;3.198;2024-02-21T12:31:40;11.50;1.00
84335;DHT22;74512;51.190;3.198;2024-02-21T12:34:06;11.50;1.00
84335;DHT22;74512;51.190;3.198;2024-02-21T12:36:32;11.60;1.00
84335;DHT22;74512;51.190;3.198;2024-02-21T12:38:59;11.50;1.00
84335;DHT22;74512;51.190;3.198;2024-02-21T12:41:26;11.60;1.00
84335;DHT22;74512;51.190;3.198;2024-02-21T12:43:53;11.50;1.00
84335;DHT22;74512;51.190;3.198;2024-02-21T12:46:19;11.60;1.00
84335;DHT22;74512;51.190;3.198;2024-02-21T12:48:44;11.50;1.00
84335;DHT22;74512;51.190;3.198;2024-02-21T12:51:10;11.40;1.00
84335;DHT22;74512;51.190;3.198;2024-02-21T12:53:36;11.40;1.00
84335;DHT22;74512;51.190;3.198;2024-02-21T12:56:01;11.20;1.00
84335;DHT22;74512;51.190;3.198;2024-02-21T12:58:27;11.10;1.00
84335;DHT22;74512;51.190;3.198;2024-02-21T13:00:56;11.30;1.00
84335;DHT22;74512;51.190;3.198;2024-02-21T13:03:22;11.50;1.00
84335;DHT22;74512;51.190;3.198;2024-02-21T13:05:48;11.50;1.00
84335;DHT22;74512;51.190;3.198;2024-02-21T13:08:13;11.30;1.00
84335;DHT22;74512;51.190;3.198;2024-02-21T13:10:39;11.30;1.00
84335;DHT22;74512;51.190;3.198;2024-02-21T13:13:05;11.30;1.00
84335;DHT22;74512;51.190;3.198;2024-02-21T13:15:31;11.40;1.00
84335;DHT22;74512;51.190;3.198;2024-02-21T13:17:57;11.20;1.00
84335;DHT22;74512;51.190;3.198;2024-02-21T13:20:23;11.20;1.00
84335;DHT22;74512;51.190;3.198;2024-02-21T13:22:49;11.30;1.00
84335;DHT22;74512;51.190;3.198;2024-02-21T13:25:15;11.20;1.00
84335;DHT22;74512;51.190;3.198;2024-02-21T13:27:44;11.40;1.00
84335;DHT22;74512;51.190;3.198;2024-02-21T13:30:10;11.50;1.00
84335;DHT22;74512;51.190;3.198;2024-02-21T13:32:36;11.70;1.00
84335;DHT22;74512;51.190;3.198;2024-02-21T13:35:01;11.60;1.00
84335;DHT22;74512;51.190;3.198;2024-02-21T13:37:28;11.70;1.00
84335;DHT22;74512;51.190;3.198;2024-02-21T13:39:55;11.60;1.00
84335;DHT22;74512;51.190;3.198;2024-02-21T13:42:22;11.60;1.00
84335;DHT22;74512;51.190;3.198;2024-02-21T13:44:50;11.50;1.00
84335;DHT22;74512;51.190;3.198;2024-02-21T13:47:16;11.50;1.00
84335;DHT22;74512;51.190;3.198;2024-02-21T13:49:41;11.50;1.00
84335;DHT22;74512;51.190;3.198;2024-02-21T13:52:07;11.50;1.00
84335;DHT22;74512;51.190;3.198;2024-02-21T13:54:34;11.50;1.00
84335;DHT22;74512;51.190;3.198;2024-02-21T13:57:00;11.60;1.00
84335;DHT22;74512;51.190;3.198;2024-02-21T13:59:27;11.40;1.00
84335;DHT22;74512;51.190;3.198;2024-02-21T14:01:53;11.20;1.00
84335;DHT22;74512;51.190;3.198;2024-02-21T14:04:19;11.20;1.00
84335;DHT22;74512;51.190;3.198;2024-02-21T14:06:45;11.10;1.00
84335;DHT22;74512;51.190;3.198;2024-02-21T14:09:12;11.20;1.00
84335;DHT22;74512;51.190;3.198;2024-02-21T14:11:38;11.20;1.00
84335;DHT22;74512;51.190;3.198;2024-02-21T14:14:05;11.10;1.00
84335;DHT22;74512;51.190;3.198;2024-02-21T14:16:32;11.20;1.00
84335;DHT22;74512;51.190;3.198;2024-02-21T14:18:57;11.20;1.00
84335;DHT22;74512;51.190;3.198;2024-02-21T14:21:23;11.30;1.00
84335;DHT22;74512;51.190;3.198;2024-02-21T14:23:49;11.20;1.00
84335;DHT22;74512;51.190;3.198;2024-02-21T14:26:14;11.30;1.00
84335;DHT22;74512;51.190;3.198;2024-02-21T14:28:40;11.30;1.00
84335;DHT22;74512;51.190;3.198;2024-02-21T14:31:07;11.40;1.00
84335;DHT22;74512;51.190;3.198;2024-02-21T14:33:35;11.40;1.00
84335;DHT22;74512;51.190;3.198;2024-02-21T14:36:01;11.30;1.00
84335;DHT22;74512;51.190;3.198;2024-02-21T14:38:28;11.50;1.00
84335;DHT22;74512;51.190;3.198;2024-02-21T14:40:53;11.50;1.00
84335;DHT22;74512;51.190;3.198;2024-02-21T14:43:19;11.30;1.00
84335;DHT22;74512;51.190;3.198;2024-02-21T14:45:47;11.30;1.00
84335;DHT22;74512;51.190;3.198;2024-02-21T14:48:15;11.00;1.00
84335;DHT22;74512;51.190;3.198;2024-02-21T14:50:41;11.30;1.00
84335;DHT22;74512;51.190;3.198;2024-02-21T14:53:08;11.40;1.00
84335;DHT22;74512;51.190;3.198;2024-02-21T14:55:37;11.50;1.00
84335;DHT22;74512;51.190;3.198;2024-02-21T14:58:06;11.40;1.00
84335;DHT22;74512;51.190;3.198;2024-02-21T15:00:32;11.30;1.00
84335;DHT22;74512;51.190;3.198;2024-02-21T15:02:58;11.20;1.00
84335;DHT22;74512;51.190;3.198;2024-02-21T15:05:25;11.20;1.00
84335;DHT22;74512;51.190;3.198;2024-02-21T15:07:51;11.20;1.00
84335;DHT22;74512;51.190;3.198;2024-02-21T15:10:17;11.20;1.00
84335;DHT22;74512;51.190;3.198;2024-02-21T15:12:46;11.00;1.00
84335;DHT22;74512;51.190;3.198;2024-02-21T15:15:12;11.00;1.00
84335;DHT22;74512;51.190;3.198;2024-02-21T15:17:38;11.20;1.00
84335;DHT22;74512;51.190;3.198;2024-02-21T15:20:04;11.40;1.00
84335;DHT22;74512;51.190;3.198;2024-02-21T15:22:36;11.40;1.00
84335;DHT22;74512;51.190;3.198;2024-02-21T15:25:02;11.30;1.00
84335;DHT22;74512;51.190;3.198;2024-02-21T15:27:30;11.30;1.00
84335;DHT22;74512;51.190;3.198;2024-02-21T15:29:55;11.30;1.00
84335;DHT22;74512;51.190;3.198;2024-02-21T15:32:23;11.20;1.00
84335;DHT22;74512;51.190;3.198;2024-02-21T15:34:48;11.00;1.00
84335;DHT22;74512;51.190;3.198;2024-02-21T15:37:14;10.80;1.00
84335;DHT22;74512;51.190;3.198;2024-02-21T15:39:42;10.70;1.00
84335;DHT22;74512;51.190;3.198;2024-02-21T15:42:11;10.90;1.00
84335;DHT22;74512;51.190;3.198;2024-02-21T15:44:37;11.20;1.00
84335;DHT22;74512;51.190;3.198;2024-02-21T15:47:03;11.20;1.00
84335;DHT22;74512;51.190;3.198;2024-02-21T15:49:29;11.20;1.00
84335;DHT22;74512;51.190;3.198;2024-02-21T15:51:54;11.30;1.00
84335;DHT22;74512;51.190;3.198;2024-02-21T15:54:20;11.30;1.00